sensor_id;sensor_type;location;lat;lon;timestamp;pressure;altitude;pressure_sealevel;temperature;humidity
53546;BME280;39432;51.902;10.844;2023-01-24T00:00:19;101899.28;;;0.86;100.00
53546;BME280;39432;51.902;10.844;2023-01-24T00:02:49;101895.50;;;1.08;100.00
53546;BME280;39432;51.902;10.844;2023-01-24T00:05:18;101900.88;;;0.98;100.00
53546;BME280;39432;51.902;10.844;2023-01-24T00:07:51;101896.38;;;1.18;100.00
53546;BME280;39432;51.902;10.844;2023-01-24T00:10:21;101893.97;;;1.15;100.00
53546;BME280;39432;51.902;10.844;2023-01-24T00:12:51;101891.22;;;0.86;100.00
53546;BME280;39432;51.902;10.844;2023-01-24T00:15:21;101883.56;;;0.91;100.00
53546;BME280;39432;51.902;10.844;2023-01-24T00:17:50;101882.81;;;0.79;100.00
53546;BME280;39432;51.902;10.844;2023-01-24T00:20:21;101881.16;;;0.97;100.00
53546;BME280;39432;51.902;10.844;2023-01-24T00:22:53;101883.31;;;1.13;100.00
53546;BME280;39432;51.902;10.844;2023-01-24T00:25:22;101882.75;;;1.19;100.00
53546;BME280;39432;51.902;10.844;2023-01-24T00:27:52;101878.66;;;1.35;100.00
53546;BME280;39432;51.902;10.844;2023-01-24T00:30:21;101891.88;;;1.28;100.00
53546;BME280;39432;51.902;10.844;2023-01-24T00:32:51;101884.06;;;1.35;100.00
53546;BME280;39432;51.902;10.844;2023-01-24T00:35:20;101895.59;;;0.87;100.00
53546;BME280;39432;51.902;10.844;2023-01-24T00:37:53;101896.53;;;1.16;100.00
53546;BME280;39432;51.902;10.844;2023-01-24T00:40:22;101887.09;;;0.91;100.00
53546;BME280;39432;51.902;10.844;2023-01-24T00:42:52;101887.91;;;0.72;100.00
53546;BME280;39432;51.902;10.844;2023-01-24T00:45:21;101874.09;;;1.25;100.00
53546;BME280;39432;51.902;10.844;2023-01-24T00:47:52;101869.88;;;1.52;100.00
53546;BME280;39432;51.902;10.844;2023-01-24T00:50:22;101870.97;;;1.59;100.00
53546;BME280;39432;51.902;10.844;2023-01-24T00:52:54;101863.06;;;1.28;100.00
53546;BME280;39432;51.902;10.844;2023-01-24T00:55:24;101869.72;;;1.24;100.00
53546;BME280;39432;51.902;10.844;2023-01-24T00:57:54;101870.97;;;1.78;100.00
53546;BME280;39432;51.902;10.844;2023-01-24T01:00:23;101874.25;;;1.72;100.00
53546;BME280;39432;51.902;10.844;2023-01-24T01:02:53;101867.31;;;1.60;100.00
53546;BME280;39432;51.902;10.844;2023-01-24T01:05:23;101860.66;;;1.54;100.00
53546;BME280;39432;51.902;10.844;2023-01-24T01:07:55;101849.13;;;1.23;100.00
53546;BME280;39432;51.902;10.844;2023-01-24T01:10:24;101854.25;;;1.46;100.00
53546;BME280;39432;51.902;10.844;2023-01-24T01:12:54;101851.09;;;1.02;100.00
53546;BME280;39432;51.902;10.844;2023-01-24T01:15:23;101860.34;;;1.48;100.00
53546;BME280;39432;51.902;10.844;2023-01-24T01:17:53;101856.66;;;1.29;100.00
53546;BME280;39432;51.902;10.844;2023-01-24T01:20:23;101862.91;;;1.11;100.00
53546;BME280;39432;51.902;10.844;2023-01-24T01:22:56;101863.34;;;1.45;100.00
53546;BME280;39432;51.902;10.844;2023-01-24T01:25:25;101864.16;;;1.07;100.00
53546;BME280;39432;51.902;10.844;2023-01-24T01:27:55;101864.44;;;0.94;100.00
53546;BME280;39432;51.902;10.844;2023-01-24T01:30:24;101867.84;;;1.15;100.00
53546;BME280;39432;51.902;10.844;2023-01-24T01:32:54;101875.69;;;1.28;100.00
53546;BME280;39432;51.902;10.844;2023-01-24T01:35:24;101870.72;;;1.33;100.00
53546;BME280;39432;51.902;10.844;2023-01-24T01:37:56;101879.19;;;0.99;100.00
53546;BME280;39432;51.902;10.844;2023-01-24T01:40:26;101875.63;;;0.89;100.00
53546;BME280;39432;51.902;10.844;2023-01-24T01:42:56;101885.69;;;0.97;100.00
53546;BME280;39432;51.902;10.844;2023-01-24T01:45:37;101886.81;;;0.85;100.00
53546;BME280;39432;51.902;10.844;2023-01-24T01:48:21;101886.28;;;1.00;100.00
53546;BME280;39432;51.902;10.844;2023-01-24T01:50:58;101886.25;;;0.91;100.00
53546;BME280;39432;51.902;10.844;2023-01-24T01:53:35;101888.28;;;1.08;100.00
53546;BME280;39432;51.902;10.844;2023-01-24T01:56:09;101886.00;;;1.03;100.00
53546;BME280;39432;51.902;10.844;2023-01-24T01:58:41;101888.06;;;1.60;100.00
53546;BME280;39432;51.902;10.844;2023-01-24T02:01:11;101886.91;;;1.81;100.00
53546;BME280;39432;51.902;10.844;2023-01-24T02:03:46;101886.47;;;1.76;100.00
53546;BME280;39432;51.902;10.844;2023-01-24T02:06:27;101882.47;;;1.90;100.00
53546;BME280;39432;51.902;10.844;2023-01-24T02:09:04;101880.94;;;1.78;100.00
53546;BME280;39432;51.902;10.844;2023-01-24T02:11:38;101880.59;;;2.10;100.00
53546;BME280;39432;51.902;10.844;2023-01-24T02:14:08;101872.56;;;1.71;100.00
53546;BME280;39432;51.902;10.844;2023-01-24T02:16:51;101869.00;;;1.71;100.00
53546;BME280;39432;51.902;10.844;2023-01-24T02:19:39;101870.13;;;1.88;100.00
53546;BME280;39432;51.902;10.844;2023-01-24T02:22:15;101868.94;;;2.00;100.00
53546;BME280;39432;51.902;10.844;2023-01-24T02:24:55;101855.38;;;1.63;100.00
53546;BME280;39432;51.902;10.844;2023-01-24T02:27:30;101851.41;;;1.18;100.00
53546;BME280;39432;51.902;10.844;2023-01-24T02:30:00;101859.06;;;1.42;100.00
53546;BME280;39432;51.902;10.844;2023-01-24T02:32:30;101859.91;;;1.62;100.00
53546;BME280;39432;51.902;10.844;2023-01-24T02:34:59;101862.78;;;1.61;100.00
53546;BME280;39432;51.902;10.844;2023-01-24T02:37:29;101862.56;;;1.91;100.00
53546;BME280;39432;51.902;10.844;2023-01-24T02:40:03;101850.13;;;1.61;100.00
53546;BME280;39432;51.902;10.844;2023-01-24T02:42:38;101855.31;;;1.92;100.00
53546;BME280;39432;51.902;10.844;2023-01-24T02:45:10;101837.31;;;1.82;100.00
53546;BME280;39432;51.902;10.844;2023-01-24T02:47:46;101849.34;;;1.98;100.00
53546;BME280;39432;51.902;10.844;2023-01-24T02:50:17;101843.72;;;1.52;100.00
53546;BME280;39432;51.902;10.844;2023-01-24T02:52:48;101848.84;;;1.46;100.00
53546;BME280;39432;51.902;10.844;2023-01-24T02:55:30;101846.88;;;1.28;100.00
53546;BME280;39432;51.902;10.844;2023-01-24T02:58:02;101847.44;;;1.61;100.00
53546;BME280;39432;51.902;10.844;2023-01-24T03:00:37;101837.19;;;1.74;100.00
53546;BME280;39432;51.902;10.844;2023-01-24T03:03:10;101845.16;;;1.76;100.00
53546;BME280;39432;51.902;10.844;2023-01-24T03:05:40;101842.16;;;1.69;100.00
53546;BME280;39432;51.902;10.844;2023-01-24T03:08:32;101829.34;;;1.81;100.00
53546;BME280;39432;51.902;10.844;2023-01-24T03:11:08;101825.00;;;1.31;100.00
53546;BME280;39432;51.902;10.844;2023-01-24T03:13:41;101828.41;;;1.14;100.00
53546;BME280;39432;51.902;10.844;2023-01-24T03:16:24;101828.44;;;1.04;100.00
53546;BME280;39432;51.902;10.844;2023-01-24T03:19:06;101827.78;;;0.82;100.00
53546;BME280;39432;51.902;10.844;2023-01-24T03:21:48;101830.66;;;1.09;100.00
53546;BME280;39432;51.902;10.844;2023-01-24T03:24:31;101833.66;;;1.45;100.00
53546;BME280;39432;51.902;10.844;2023-01-24T03:27:13;101835.75;;;1.70;100.00
53546;BME280;39432;51.902;10.844;2023-01-24T03:29:59;101837.16;;;1.94;100.00
53546;BME280;39432;51.902;10.844;2023-01-24T03:32:41;101828.81;;;1.58;100.00
53546;BME280;39432;51.902;10.844;2023-01-24T03:35:23;101841.16;;;1.70;100.00
53546;BME280;39432;51.902;10.844;2023-01-24T03:37:53;101832.69;;;1.26;100.00
53546;BME280;39432;51.902;10.844;2023-01-24T03:40:35;101822.16;;;1.62;100.00
53546;BME280;39432;51.902;10.844;2023-01-24T03:43:05;101823.31;;;1.30;100.00
53546;BME280;39432;51.902;10.844;2023-01-24T03:45:40;101829.53;;;0.83;100.00
53546;BME280;39432;51.902;10.844;2023-01-24T03:48:25;101832.66;;;1.07;100.00
53546;BME280;39432;51.902;10.844;2023-01-24T03:51:03;101838.91;;;1.56;100.00
53546;BME280;39432;51.902;10.844;2023-01-24T03:53:45;101833.25;;;1.11;100.00
53546;BME280;39432;51.902;10.844;2023-01-24T03:56:16;101832.41;;;1.10;100.00
53546;BME280;39432;51.902;10.844;2023-01-24T03:58:52;101840.88;;;1.73;100.00
53546;BME280;39432;51.902;10.844;2023-01-24T04:01:27;101840.63;;;1.57;100.00
53546;BME280;39432;51.902;10.844;2023-01-24T04:04:01;101832.13;;;1.33;100.00
53546;BME280;39432;51.902;10.844;2023-01-24T04:06:31;101834.66;;;1.15;100.00
53546;BME280;39432;51.902;10.844;2023-01-24T04:09:04;101827.28;;;1.17;100.00
53546;BME280;39432;51.902;10.844;2023-01-24T04:11:36;101830.53;;;1.01;100.00
53546;BME280;39432;51.902;10.844;2023-01-24T04:14:12;101831.81;;;0.97;100.00
53546;BME280;39432;51.902;10.844;2023-01-24T04:16:56;101834.94;;;1.02;100.00
53546;BME280;39432;51.902;10.844;2023-01-24T04:19:30;101840.19;;;1.52;100.00
53546;BME280;39432;51.902;10.844;2023-01-24T04:22:00;101837.78;;;1.49;100.00
53546;BME280;39432;51.902;10.844;2023-01-24T04:24:32;101828.44;;;1.34;100.00
53546;BME280;39432;51.902;10.844;2023-01-24T04:27:02;101835.94;;;1.40;100.00
53546;BME280;39432;51.902;10.844;2023-01-24T04:29:50;101822.88;;;1.35;100.00
53546;BME280;39432;51.902;10.844;2023-01-24T04:32:22;101824.72;;;1.05;100.00
53546;BME280;39432;51.902;10.844;2023-01-24T04:34:57;101829.91;;;1.94;100.00
53546;BME280;39432;51.902;10.844;2023-01-24T04:37:46;101824.44;;;1.18;100.00
53546;BME280;39432;51.902;10.844;2023-01-24T04:40:25;101822.47;;;1.40;100.00
53546;BME280;39432;51.902;10.844;2023-01-24T04:42:55;101830.81;;;1.37;100.00
53546;BME280;39432;51.902;10.844;2023-01-24T04:45:25;101826.44;;;1.45;100.00
53546;BME280;39432;51.902;10.844;2023-01-24T04:47:59;101830.00;;;2.02;100.00
53546;BME280;39432;51.902;10.844;2023-01-24T04:50:30;101821.59;;;1.49;100.00
53546;BME280;39432;51.902;10.844;2023-01-24T04:52:59;101821.91;;;1.26;100.00
53546;BME280;39432;51.902;10.844;2023-01-24T04:55:29;101825.16;;;1.40;100.00
53546;BME280;39432;51.902;10.844;2023-01-24T04:57:59;101829.84;;;1.38;100.00
53546;BME280;39432;51.902;10.844;2023-01-24T05:00:28;101831.81;;;1.07;100.00
53546;BME280;39432;51.902;10.844;2023-01-24T05:03:01;101833.22;;;1.01;100.00
53546;BME280;39432;51.902;10.844;2023-01-24T05:05:31;101824.84;;;1.04;100.00
53546;BME280;39432;51.902;10.844;2023-01-24T05:08:00;101827.81;;;0.72;100.00
53546;BME280;39432;51.902;10.844;2023-01-24T05:10:31;101824.41;;;0.99;100.00
53546;BME280;39432;51.902;10.844;2023-01-24T05:13:00;101836.75;;;0.92;100.00
53546;BME280;39432;51.902;10.844;2023-01-24T05:15:31;101837.06;;;0.89;100.00
53546;BME280;39432;51.902;10.844;2023-01-24T05:18:04;101837.47;;;1.03;100.00
53546;BME280;39432;51.902;10.844;2023-01-24T05:20:35;101840.72;;;0.88;100.00
53546;BME280;39432;51.902;10.844;2023-01-24T05:23:04;101842.84;;;0.84;100.00
53546;BME280;39432;51.902;10.844;2023-01-24T05:25:39;101844.59;;;1.34;100.00
53546;BME280;39432;51.902;10.844;2023-01-24T05:28:08;101842.88;;;0.94;100.00
53546;BME280;39432;51.902;10.844;2023-01-24T05:30:42;101845.84;;;0.91;100.00
53546;BME280;39432;51.902;10.844;2023-01-24T05:33:22;101840.59;;;0.99;100.00
53546;BME280;39432;51.902;10.844;2023-01-24T05:35:57;101843.69;;;0.85;100.00
53546;BME280;39432;51.902;10.844;2023-01-24T05:38:30;101852.28;;;0.59;100.00
53546;BME280;39432;51.902;10.844;2023-01-24T05:41:01;101845.53;;;0.74;100.00
53546;BME280;39432;51.902;10.844;2023-01-24T05:43:32;101855.91;;;0.89;100.00
53546;BME280;39432;51.902;10.844;2023-01-24T05:46:04;101849.56;;;0.59;100.00
53546;BME280;39432;51.902;10.844;2023-01-24T05:48:42;101857.75;;;0.48;100.00
53546;BME280;39432;51.902;10.844;2023-01-24T05:51:14;101859.88;;;0.85;100.00
53546;BME280;39432;51.902;10.844;2023-01-24T05:53:46;101856.16;;;0.66;100.00
53546;BME280;39432;51.902;10.844;2023-01-24T05:56:35;101860.75;;;0.55;100.00
53546;BME280;39432;51.902;10.844;2023-01-24T05:59:05;101864.94;;;0.68;100.00
53546;BME280;39432;51.902;10.844;2023-01-24T06:01:37;101869.63;;;0.76;100.00
53546;BME280;39432;51.902;10.844;2023-01-24T06:04:10;101869.28;;;1.00;100.00
53546;BME280;39432;51.902;10.844;2023-01-24T06:06:40;101870.69;;;1.43;100.00
53546;BME280;39432;51.902;10.844;2023-01-24T06:09:10;101879.09;;;1.40;100.00
53546;BME280;39432;51.902;10.844;2023-01-24T06:11:40;101873.97;;;1.56;100.00
53546;BME280;39432;51.902;10.844;2023-01-24T06:14:14;101873.31;;;0.75;100.00
53546;BME280;39432;51.902;10.844;2023-01-24T06:16:45;101875.22;;;0.94;100.00
53546;BME280;39432;51.902;10.844;2023-01-24T06:19:19;101883.78;;;1.57;100.00
53546;BME280;39432;51.902;10.844;2023-01-24T06:21:55;101879.38;;;1.37;100.00
53546;BME280;39432;51.902;10.844;2023-01-24T06:24:33;101882.28;;;0.85;100.00
53546;BME280;39432;51.902;10.844;2023-01-24T06:27:22;101883.78;;;1.38;100.00
53546;BME280;39432;51.902;10.844;2023-01-24T06:29:52;101892.72;;;1.67;100.00
53546;BME280;39432;51.902;10.844;2023-01-24T06:32:34;101886.59;;;1.75;100.00
53546;BME280;39432;51.902;10.844;2023-01-24T06:35:15;101888.03;;;1.79;100.00
53546;BME280;39432;51.902;10.844;2023-01-24T06:37:50;101891.00;;;1.47;100.00
53546;BME280;39432;51.902;10.844;2023-01-24T06:40:22;101878.88;;;0.83;100.00
53546;BME280;39432;51.902;10.844;2023-01-24T06:42:53;101890.28;;;1.06;100.00
53546;BME280;39432;51.902;10.844;2023-01-24T06:45:22;101900.41;;;0.73;100.00
53546;BME280;39432;51.902;10.844;2023-01-24T06:47:52;101907.13;;;0.58;100.00
53546;BME280;39432;51.902;10.844;2023-01-24T06:50:28;101909.50;;;0.92;100.00
53546;BME280;39432;51.902;10.844;2023-01-24T06:52:59;101906.59;;;0.64;100.00
53546;BME280;39432;51.902;10.844;2023-01-24T06:55:29;101920.16;;;0.84;100.00
53546;BME280;39432;51.902;10.844;2023-01-24T06:58:00;101918.47;;;1.02;100.00
53546;BME280;39432;51.902;10.844;2023-01-24T07:00:30;101918.09;;;0.66;100.00
53546;BME280;39432;51.902;10.844;2023-01-24T07:03:00;101926.88;;;0.68;100.00
53546;BME280;39432;51.902;10.844;2023-01-24T07:05:38;101929.72;;;1.07;100.00
53546;BME280;39432;51.902;10.844;2023-01-24T07:08:08;101926.63;;;0.81;100.00
53546;BME280;39432;51.902;10.844;2023-01-24T07:10:38;101936.72;;;0.79;100.00
53546;BME280;39432;51.902;10.844;2023-01-24T07:13:08;101935.81;;;1.09;100.00
53546;BME280;39432;51.902;10.844;2023-01-24T07:15:38;101936.56;;;0.81;100.00
53546;BME280;39432;51.902;10.844;2023-01-24T07:18:10;101933.38;;;0.96;100.00
53546;BME280;39432;51.902;10.844;2023-01-24T07:20:44;101940.97;;;1.31;100.00
53546;BME280;39432;51.902;10.844;2023-01-24T07:23:20;101946.25;;;1.52;100.00
53546;BME280;39432;51.902;10.844;2023-01-24T07:25:51;101942.19;;;1.08;100.00
53546;BME280;39432;51.902;10.844;2023-01-24T07:28:21;101943.97;;;1.48;100.00
53546;BME280;39432;51.902;10.844;2023-01-24T07:30:52;101939.56;;;1.27;100.00
53546;BME280;39432;51.902;10.844;2023-01-24T07:33:22;101938.16;;;0.93;100.00
53546;BME280;39432;51.902;10.844;2023-01-24T07:35:54;101932.97;;;1.20;100.00
53546;BME280;39432;51.902;10.844;2023-01-24T07:38:24;101937.00;;;1.36;100.00
53546;BME280;39432;51.902;10.844;2023-01-24T07:40:54;101931.28;;;1.19;100.00
53546;BME280;39432;51.902;10.844;2023-01-24T07:43:23;101939.00;;;1.92;100.00
53546;BME280;39432;51.902;10.844;2023-01-24T07:45:53;101937.03;;;1.55;100.00
53546;BME280;39432;51.902;10.844;2023-01-24T07:48:22;101929.50;;;1.49;100.00
53546;BME280;39432;51.902;10.844;2023-01-24T07:50:57;101934.88;;;1.39;100.00
53546;BME280;39432;51.902;10.844;2023-01-24T07:53:27;101928.38;;;1.61;100.00
53546;BME280;39432;51.902;10.844;2023-01-24T07:55:58;101931.19;;;1.50;100.00
53546;BME280;39432;51.902;10.844;2023-01-24T07:58:28;101927.69;;;0.90;100.00
53546;BME280;39432;51.902;10.844;2023-01-24T08:00:58;101936.69;;;1.19;100.00
53546;BME280;39432;51.902;10.844;2023-01-24T08:03:28;101935.19;;;1.65;100.00
53546;BME280;39432;51.902;10.844;2023-01-24T08:06:03;101928.97;;;0.95;100.00
53546;BME280;39432;51.902;10.844;2023-01-24T08:08:33;101936.25;;;1.14;100.00
53546;BME280;39432;51.902;10.844;2023-01-24T08:11:03;101923.44;;;0.97;100.00
53546;BME280;39432;51.902;10.844;2023-01-24T08:13:32;101926.56;;;1.02;100.00
53546;BME280;39432;51.902;10.844;2023-01-24T08:16:03;101936.66;;;1.00;100.00
53546;BME280;39432;51.902;10.844;2023-01-24T08:18:32;101937.75;;;0.57;100.00
53546;BME280;39432;51.902;10.844;2023-01-24T08:21:05;101938.84;;;0.45;100.00
53546;BME280;39432;51.902;10.844;2023-01-24T08:23:35;101938.28;;;0.82;100.00
53546;BME280;39432;51.902;10.844;2023-01-24T08:26:04;101944.78;;;0.79;100.00
53546;BME280;39432;51.902;10.844;2023-01-24T08:28:35;101945.88;;;0.67;100.00
53546;BME280;39432;51.902;10.844;2023-01-24T08:31:05;101945.28;;;0.63;100.00
53546;BME280;39432;51.902;10.844;2023-01-24T08:33:34;101964.06;;;0.23;100.00
53546;BME280;39432;51.902;10.844;2023-01-24T08:36:08;101965.38;;;0.29;100.00
53546;BME280;39432;51.902;10.844;2023-01-24T08:38:37;101969.09;;;0.37;100.00
53546;BME280;39432;51.902;10.844;2023-01-24T08:41:07;101977.56;;;0.33;100.00
53546;BME280;39432;51.902;10.844;2023-01-24T08:43:36;101971.47;;;0.31;100.00
53546;BME280;39432;51.902;10.844;2023-01-24T08:46:06;101980.22;;;0.74;100.00
53546;BME280;39432;51.902;10.844;2023-01-24T08:48:36;101986.09;;;0.38;100.00
53546;BME280;39432;51.902;10.844;2023-01-24T08:51:08;101982.63;;;0.26;100.00
53546;BME280;39432;51.902;10.844;2023-01-24T08:53:37;101983.63;;;0.46;100.00
53546;BME280;39432;51.902;10.844;2023-01-24T08:56:07;101985.22;;;0.28;100.00
53546;BME280;39432;51.902;10.844;2023-01-24T08:58:36;101981.72;;;0.37;100.00
53546;BME280;39432;51.902;10.844;2023-01-24T09:01:06;101987.00;;;0.69;100.00
53546;BME280;39432;51.902;10.844;2023-01-24T09:03:37;101985.56;;;0.44;100.00
53546;BME280;39432;51.902;10.844;2023-01-24T09:06:09;101989.22;;;0.33;100.00
53546;BME280;39432;51.902;10.844;2023-01-24T09:08:41;101988.38;;;0.63;100.00
53546;BME280;39432;51.902;10.844;2023-01-24T09:11:10;101984.88;;;0.21;100.00
53546;BME280;39432;51.902;10.844;2023-01-24T09:13:40;101995.63;;;0.21;100.00
53546;BME280;39432;51.902;10.844;2023-01-24T09:16:09;101989.78;;;0.37;100.00
53546;BME280;39432;51.902;10.844;2023-01-24T09:18:39;101997.53;;;0.30;100.00
53546;BME280;39432;51.902;10.844;2023-01-24T09:21:11;101995.19;;;0.37;100.00
53546;BME280;39432;51.902;10.844;2023-01-24T09:23:41;101996.94;;;0.26;100.00
53546;BME280;39432;51.902;10.844;2023-01-24T09:26:11;101994.47;;;0.14;100.00
53546;BME280;39432;51.902;10.844;2023-01-24T09:28:40;101991.06;;;0.12;100.00
53546;BME280;39432;51.902;10.844;2023-01-24T09:31:10;102001.41;;;0.16;100.00
53546;BME280;39432;51.902;10.844;2023-01-24T09:33:39;101999.06;;;0.23;100.00
53546;BME280;39432;51.902;10.844;2023-01-24T09:36:27;101996.09;;;0.05;100.00
53546;BME280;39432;51.902;10.844;2023-01-24T09:38:57;102005.41;;;0.01;100.00
53546;BME280;39432;51.902;10.844;2023-01-24T09:41:43;102007.44;;;0.09;100.00
53546;BME280;39432;51.902;10.844;2023-01-24T09:44:24;102003.72;;;0.00;100.00
53546;BME280;39432;51.902;10.844;2023-01-24T09:46:56;101998.34;;;0.00;100.00
53546;BME280;39432;51.902;10.844;2023-01-24T09:49:34;102009.16;;;0.10;100.00
53546;BME280;39432;51.902;10.844;2023-01-24T09:52:22;102003.59;;;0.22;100.00
53546;BME280;39432;51.902;10.844;2023-01-24T09:54:57;102007.84;;;0.46;100.00
53546;BME280;39432;51.902;10.844;2023-01-24T09:57:33;101992.63;;;0.35;100.00
53546;BME280;39432;51.902;10.844;2023-01-24T10:00:15;101984.47;;;0.25;100.00
53546;BME280;39432;51.902;10.844;2023-01-24T10:02:46;101989.84;;;0.05;100.00
53546;BME280;39432;51.902;10.844;2023-01-24T10:05:16;101995.91;;;0.18;100.00
53546;BME280;39432;51.902;10.844;2023-01-24T10:08:10;101993.78;;;0.21;100.00
53546;BME280;39432;51.902;10.844;2023-01-24T10:10:45;101998.59;;;0.18;100.00
53546;BME280;39432;51.902;10.844;2023-01-24T10:13:40;101997.34;;;0.22;100.00
53546;BME280;39432;51.902;10.844;2023-01-24T10:16:26;101993.94;;;0.20;100.00
53546;BME280;39432;51.902;10.844;2023-01-24T10:19:07;101991.91;;;0.12;100.00
53546;BME280;39432;51.902;10.844;2023-01-24T10:21:47;101994.25;;;0.26;100.00
53546;BME280;39432;51.902;10.844;2023-01-24T10:24:24;101997.38;;;0.73;100.00
53546;BME280;39432;51.902;10.844;2023-01-24T10:26:59;101993.53;;;0.76;100.00
53546;BME280;39432;51.902;10.844;2023-01-24T10:29:31;101998.88;;;0.36;100.00
53546;BME280;39432;51.902;10.844;2023-01-24T10:32:05;101992.56;;;0.46;100.00
53546;BME280;39432;51.902;10.844;2023-01-24T10:34:40;101991.69;;;0.46;100.00
53546;BME280;39432;51.902;10.844;2023-01-24T10:37:19;101987.09;;;0.58;100.00
53546;BME280;39432;51.902;10.844;2023-01-24T10:39:52;101989.06;;;0.56;100.00
53546;BME280;39432;51.902;10.844;2023-01-24T10:42:23;101991.19;;;0.83;100.00
53546;BME280;39432;51.902;10.844;2023-01-24T10:44:55;101987.94;;;0.58;100.00
53546;BME280;39432;51.902;10.844;2023-01-24T10:47:40;101988.38;;;0.63;100.00
53546;BME280;39432;51.902;10.844;2023-01-24T10:50:15;101983.00;;;0.63;100.00
53546;BME280;39432;51.902;10.844;2023-01-24T10:52:45;101991.34;;;1.21;100.00
53546;BME280;39432;51.902;10.844;2023-01-24T10:55:26;101975.09;;;0.71;100.00
53546;BME280;39432;51.902;10.844;2023-01-24T10:58:01;101968.00;;;0.40;100.00
53546;BME280;39432;51.902;10.844;2023-01-24T11:00:34;101967.00;;;0.71;100.00
53546;BME280;39432;51.902;10.844;2023-01-24T11:03:16;101967.28;;;0.68;100.00
53546;BME280;39432;51.902;10.844;2023-01-24T11:05:49;101973.88;;;0.85;100.00
53546;BME280;39432;51.902;10.844;2023-01-24T11:08:21;101956.38;;;0.70;100.00
53546;BME280;39432;51.902;10.844;2023-01-24T11:10:55;101960.41;;;1.35;100.00
53546;BME280;39432;51.902;10.844;2023-01-24T11:13:30;101953.53;;;0.41;100.00
53546;BME280;39432;51.902;10.844;2023-01-24T11:16:02;101945.97;;;0.56;100.00
53546;BME280;39432;51.902;10.844;2023-01-24T11:18:33;101949.81;;;0.32;100.00
53546;BME280;39432;51.902;10.844;2023-01-24T11:21:10;101942.09;;;0.48;100.00
53546;BME280;39432;51.902;10.844;2023-01-24T11:23:41;101943.41;;;0.54;100.00
53546;BME280;39432;51.902;10.844;2023-01-24T11:26:25;101936.16;;;0.45;100.00
53546;BME280;39432;51.902;10.844;2023-01-24T11:28:57;101936.78;;;0.37;100.00
53546;BME280;39432;51.902;10.844;2023-01-24T11:31:30;101944.75;;;0.39;100.00
53546;BME280;39432;51.902;10.844;2023-01-24T11:34:24;101947.25;;;0.31;100.00
53546;BME280;39432;51.902;10.844;2023-01-24T11:37:06;101943.59;;;0.62;100.00
53546;BME280;39432;51.902;10.844;2023-01-24T11:39:46;101936.53;;;0.40;100.00
53546;BME280;39432;51.902;10.844;2023-01-24T11:42:35;101937.72;;;0.26;100.00
53546;BME280;39432;51.902;10.844;2023-01-24T11:45:18;101944.03;;;0.67;100.00
53546;BME280;39432;51.902;10.844;2023-01-24T11:47:59;101938.13;;;0.73;100.00
53546;BME280;39432;51.902;10.844;2023-01-24T11:50:39;101942.00;;;0.60;100.00
53546;BME280;39432;51.902;10.844;2023-01-24T11:53:33;101942.69;;;1.33;100.00
53546;BME280;39432;51.902;10.844;2023-01-24T11:56:13;101935.56;;;0.82;100.00
53546;BME280;39432;51.902;10.844;2023-01-24T11:59:07;101935.81;;;0.69;100.00
53546;BME280;39432;51.902;10.844;2023-01-24T12:01:48;101928.19;;;0.74;100.00
53546;BME280;39432;51.902;10.844;2023-01-24T12:04:45;101925.53;;;0.53;100.00
53546;BME280;39432;51.902;10.844;2023-01-24T12:07:23;101920.59;;;0.58;100.00
53546;BME280;39432;51.902;10.844;2023-01-24T12:09:59;101925.81;;;0.50;100.00
53546;BME280;39432;51.902;10.844;2023-01-24T12:12:36;101920.25;;;0.42;100.00
53546;BME280;39432;51.902;10.844;2023-01-24T12:15:33;101921.44;;;0.99;100.00
53546;BME280;39432;51.902;10.844;2023-01-24T12:18:23;101912.94;;;0.94;100.00
53546;BME280;39432;51.902;10.844;2023-01-24T12:21:00;101904.00;;;0.53;100.00
53546;BME280;39432;51.902;10.844;2023-01-24T12:23:41;101896.09;;;1.30;100.00
53546;BME280;39432;51.902;10.844;2023-01-24T12:26:16;101899.31;;;0.95;100.00
53546;BME280;39432;51.902;10.844;2023-01-24T12:29:11;101884.16;;;0.54;100.00
53546;BME280;39432;51.902;10.844;2023-01-24T12:31:51;101873.91;;;0.48;100.00
53546;BME280;39432;51.902;10.844;2023-01-24T12:34:32;101879.69;;;0.34;100.00
53546;BME280;39432;51.902;10.844;2023-01-24T12:37:10;101876.34;;;0.51;100.00
53546;BME280;39432;51.902;10.844;2023-01-24T12:39:46;101870.72;;;0.23;100.00
53546;BME280;39432;51.902;10.844;2023-01-24T12:42:24;101872.53;;;0.53;100.00
53546;BME280;39432;51.902;10.844;2023-01-24T12:45:01;101864.97;;;0.78;100.00
53546;BME280;39432;51.902;10.844;2023-01-24T12:47:40;101853.31;;;0.68;100.00
53546;BME280;39432;51.902;10.844;2023-01-24T12:50:21;101854.97;;;0.59;100.00
53546;BME280;39432;51.902;10.844;2023-01-24T12:53:01;101844.31;;;0.48;100.00
53546;BME280;39432;51.902;10.844;2023-01-24T12:55:36;101842.75;;;1.24;100.00
53546;BME280;39432;51.902;10.844;2023-01-24T12:58:13;101831.50;;;0.81;100.00
53546;BME280;39432;51.902;10.844;2023-01-24T13:00:55;101841.50;;;0.59;100.00
53546;BME280;39432;51.902;10.844;2023-01-24T13:03:41;101838.31;;;1.04;100.00
53546;BME280;39432;51.902;10.844;2023-01-24T13:06:20;101830.97;;;1.45;100.00
53546;BME280;39432;51.902;10.844;2023-01-24T13:09:00;101822.72;;;0.98;100.00
53546;BME280;39432;51.902;10.844;2023-01-24T13:11:35;101815.94;;;1.13;100.00
53546;BME280;39432;51.902;10.844;2023-01-24T13:14:17;101815.22;;;1.11;100.00
53546;BME280;39432;51.902;10.844;2023-01-24T13:17:08;101812.53;;;1.40;100.00